Time;durP1;ratioP1;P1;durP2;ratioP2;P2;SDS_P1;SDS_P2;PMS_P1;PMS_P2;Temp;Humidity;BMP_temperature;BMP_pressure;BME280_temperature;BME280_humidity;BME280_pressure;Samples;Min_cycle;Max_cycle;Signal;HPM_P1;HPM_P2
2024/01/31 00:01:04;;;;;;;21.62;13.70;;;7.50;99.90;;;;;;7342052;32;20561;-56
2024/01/31 00:05:06;;;;;;;21.60;13.85;;;7.50;99.90;;;;;;7338027;32;20385;-57
2024/01/31 00:09:09;;;;;;;20.50;13.40;;;7.50;99.90;;;;;;7341821;32;20190;-58
2024/01/31 00:13:11;;;;;;;23.87;14.50;;;7.40;99.90;;;;;;7344000;32;20104;-56
2024/01/31 00:17:12;;;;;;;23.73;14.60;;;7.40;99.90;;;;;;7341054;32;20104;-58
2024/01/31 00:21:14;;;;;;;23.55;14.57;;;7.50;99.90;;;;;;7335157;32;20546;-57
2024/01/31 00:25:16;;;;;;;25.70;14.87;;;7.40;99.90;;;;;;7336680;32;20211;-57
2024/01/31 00:29:18;;;;;;;23.92;14.85;;;7.40;99.90;;;;;;7337333;32;20499;-57
2024/01/31 00:33:19;;;;;;;24.60;15.73;;;7.40;99.90;;;;;;7337247;32;20130;-57
2024/01/31 00:37:21;;;;;;;25.75;15.20;;;7.40;99.90;;;;;;7334433;32;20145;-58
2024/01/31 00:41:23;;;;;;;24.45;14.82;;;7.30;99.90;;;;;;7337130;32;20290;-56
2024/01/31 00:45:24;;;;;;;25.42;14.93;;;7.40;99.90;;;;;;7337162;32;20230;-56
2024/01/31 00:49:27;;;;;;;23.90;13.45;;;7.30;99.90;;;;;;7335815;32;20210;-56
2024/01/31 00:53:30;;;;;;;24.73;13.35;;;7.10;99.90;;;;;;7343070;32;20269;-56
2024/01/31 00:57:32;;;;;;;20.65;12.43;;;7.20;99.90;;;;;;7337470;32;20122;-57
2024/01/31 01:01:33;;;;;;;25.52;14.13;;;7.10;99.90;;;;;;7342028;32;20197;-57
2024/01/31 01:05:35;;;;;;;27.30;14.95;;;7.10;99.90;;;;;;7335959;32;20111;-57
2024/01/31 01:09:37;;;;;;;24.65;13.85;;;7.10;99.90;;;;;;7337742;32;20265;-58
2024/01/31 01:13:39;;;;;;;22.50;14.30;;;7.00;99.90;;;;;;7339988;32;20127;-58
2024/01/31 01:17:40;;;;;;;22.83;14.07;;;7.10;99.90;;;;;;7340013;32;20256;-57
2024/01/31 01:21:42;;;;;;;21.37;12.57;;;7.10;99.90;;;;;;7340008;32;20179;-58
2024/01/31 01:25:44;;;;;;;21.92;11.15;;;7.10;99.90;;;;;;7345995;32;20532;-57
2024/01/31 01:29:46;;;;;;;24.87;11.63;;;7.10;99.90;;;;;;7333420;32;20604;-55
2024/01/31 01:33:48;;;;;;;23.38;11.57;;;7.10;99.90;;;;;;7339664;32;20270;-57
2024/01/31 01:37:50;;;;;;;23.98;11.23;;;7.00;99.90;;;;;;7339919;32;20277;-57
2024/01/31 01:41:51;;;;;;;20.92;11.48;;;6.90;99.90;;;;;;7344418;32;20258;-57
2024/01/31 01:46:10;;;;;;;23.20;11.73;;;6.90;99.90;;;;;;7339297;32;20597;-57
2024/01/31 01:50:12;;;;;;;21.40;10.93;;;6.90;99.90;;;;;;7345147;32;20107;-57
2024/01/31 01:54:14;;;;;;;24.52;11.25;;;6.90;99.90;;;;;;7341617;32;20103;-57
2024/01/31 01:58:16;;;;;;;20.88;11.27;;;6.90;99.90;;;;;;7338397;32;20128;-57
2024/01/31 02:02:18;;;;;;;18.55;9.75;;;6.90;99.90;;;;;;7345654;32;20194;-58
2024/01/31 02:06:21;;;;;;;20.05;9.77;;;6.90;99.90;;;;;;7342920;32;21298;-56
2024/01/31 02:10:23;;;;;;;19.23;9.43;;;6.90;99.90;;;;;;7341759;32;20186;-56
2024/01/31 02:14:25;;;;;;;16.08;7.72;;;6.90;99.90;;;;;;7334900;32;20437;-57
2024/01/31 02:18:28;;;;;;;16.40;7.43;;;6.80;99.90;;;;;;7333659;32;20218;-56
2024/01/31 02:22:30;;;;;;;12.37;5.78;;;6.70;99.90;;;;;;7333524;32;20168;-58
2024/01/31 02:26:32;;;;;;;13.00;5.53;;;6.60;99.90;;;;;;7338183;32;20172;-57
2024/01/31 02:30:34;;;;;;;14.10;5.45;;;6.60;99.90;;;;;;7336499;32;20570;-57
2024/01/31 02:34:35;;;;;;;14.02;5.68;;;6.50;99.90;;;;;;7348283;32;20199;-57
2024/01/31 02:38:37;;;;;;;13.55;4.87;;;6.60;99.90;;;;;;7338646;32;20147;-58
2024/01/31 02:42:39;;;;;;;16.02;6.28;;;6.60;99.90;;;;;;7333441;32;20190;-57
2024/01/31 02:46:41;;;;;;;10.25;5.60;;;6.60;99.90;;;;;;7335605;32;20152;-58
2024/01/31 02:50:43;;;;;;;11.98;5.03;;;6.50;99.90;;;;;;7338052;32;20151;-57
2024/01/31 02:54:44;;;;;;;10.77;5.15;;;6.60;99.90;;;;;;7335457;32;20286;-56
2024/01/31 02:58:49;;;;;;;9.20;4.82;;;6.50;99.90;;;;;;7337234;32;20096;-57
2024/01/31 03:02:51;;;;;;;15.68;6.12;;;6.50;99.90;;;;;;7339265;32;20198;-57
2024/01/31 03:06:53;;;;;;;14.73;4.95;;;6.40;99.90;;;;;;7341942;32;20210;-57
2024/01/31 03:10:54;;;;;;;9.32;5.07;;;6.50;99.90;;;;;;7339964;32;20189;-57
2024/01/31 03:14:56;;;;;;;15.00;5.60;;;6.50;99.90;;;;;;7327152;32;20313;-57
2024/01/31 03:18:58;;;;;;;10.90;4.97;;;6.50;99.90;;;;;;7340421;32;20194;-57
2024/01/31 03:23:01;;;;;;;11.38;5.00;;;6.40;99.90;;;;;;7337901;32;20140;-58
2024/01/31 03:27:03;;;;;;;10.00;4.72;;;6.40;99.90;;;;;;7336999;32;20190;-57
2024/01/31 03:31:05;;;;;;;9.88;4.93;;;6.30;99.90;;;;;;7337323;32;20177;-56
2024/01/31 03:35:07;;;;;;;11.38;5.72;;;6.30;99.90;;;;;;7334089;32;20189;-56
2024/01/31 03:39:09;;;;;;;13.18;6.03;;;6.40;99.90;;;;;;7332929;32;20716;-57
2024/01/31 03:43:11;;;;;;;15.38;5.75;;;6.30;99.90;;;;;;7330195;32;20100;-57
2024/01/31 03:47:13;;;;;;;12.02;5.78;;;6.30;99.90;;;;;;7341063;32;20595;-57
2024/01/31 03:51:22;;;;;;;14.50;6.03;;;6.30;99.90;;;;;;7343696;32;20491;-56
2024/01/31 03:55:24;;;;;;;11.60;5.62;;;6.30;99.90;;;;;;7332178;32;20183;-58
2024/01/31 03:59:25;;;;;;;10.65;5.87;;;6.30;99.90;;;;;;7341590;32;20104;-57
2024/01/31 04:03:27;;;;;;;13.65;6.25;;;6.30;99.90;;;;;;7336813;32;20165;-57
2024/01/31 04:07:29;;;;;;;13.02;6.12;;;6.40;99.90;;;;;;7343107;32;20305;-56
2024/01/31 04:11:34;;;;;;;14.07;6.75;;;6.30;99.90;;;;;;7341355;32;20104;-57
2024/01/31 04:15:36;;;;;;;14.98;6.30;;;6.30;99.90;;;;;;7334138;32;20111;-56
2024/01/31 04:19:37;;;;;;;16.25;6.72;;;6.30;99.90;;;;;;7338527;32;20103;-57
2024/01/31 04:23:39;;;;;;;11.38;5.65;;;6.20;99.90;;;;;;7343421;32;20186;-58
2024/01/31 04:27:41;;;;;;;12.73;6.35;;;6.30;99.90;;;;;;7342570;32;20300;-58
2024/01/31 04:31:43;;;;;;;11.73;6.40;;;6.20;99.90;;;;;;7339214;32;20183;-57
2024/01/31 04:35:45;;;;;;;13.73;6.80;;;6.10;99.90;;;;;;7348891;32;20534;-56
2024/01/31 04:39:50;;;;;;;10.52;6.40;;;6.20;99.90;;;;;;7348313;32;20636;-58
2024/01/31 04:43:53;;;;;;;10.70;6.18;;;6.20;99.90;;;;;;7343447;32;20135;-57
2024/01/31 04:47:55;;;;;;;12.45;7.12;;;6.00;99.90;;;;;;7332102;32;20251;-57
2024/01/31 04:51:57;;;;;;;14.07;7.10;;;6.00;99.90;;;;;;7338597;32;20173;-57
2024/01/31 04:55:58;;;;;;;12.57;6.53;;;6.00;99.90;;;;;;7341508;32;20300;-56
2024/01/31 05:00:02;;;;;;;17.40;7.25;;;6.00;99.90;;;;;;7345180;32;20168;-57
2024/01/31 05:04:04;;;;;;;13.95;6.95;;;6.00;99.90;;;;;;7340663;32;20724;-56
2024/01/31 05:08:06;;;;;;;14.32;7.20;;;6.10;99.90;;;;;;7336856;32;20572;-57
2024/01/31 05:12:08;;;;;;;14.68;7.35;;;6.00;99.90;;;;;;7337506;32;20103;-57
2024/01/31 05:16:10;;;;;;;14.20;7.70;;;6.00;99.90;;;;;;7347315;32;20642;-58
2024/01/31 05:20:11;;;;;;;11.90;6.78;;;6.00;99.90;;;;;;7345882;32;20525;-56
2024/01/31 05:24:14;;;;;;;12.32;6.62;;;6.00;99.90;;;;;;7338333;32;20253;-58
2024/01/31 05:28:16;;;;;;;13.43;7.60;;;6.00;99.90;;;;;;7342692;32;20182;-57
2024/01/31 05:32:18;;;;;;;17.65;7.78;;;6.00;99.90;;;;;;7343778;32;20115;-57
2024/01/31 05:36:19;;;;;;;14.05;7.50;;;6.00;99.90;;;;;;7340785;32;20261;-58
2024/01/31 05:40:21;;;;;;;13.88;7.75;;;6.00;99.90;;;;;;7338090;32;20343;-57
2024/01/31 05:44:23;;;;;;;13.57;6.97;;;6.10;99.90;;;;;;7335739;32;20111;-56
2024/01/31 05:48:25;;;;;;;16.70;7.57;;;6.00;99.90;;;;;;7339635;32;20823;-54
2024/01/31 05:52:27;;;;;;;15.65;7.97;;;6.00;99.90;;;;;;7313000;32;20331;-54
2024/01/31 05:56:29;;;;;;;12.77;7.28;;;6.00;99.90;;;;;;7341682;32;20254;-56
2024/01/31 06:00:30;;;;;;;15.32;7.78;;;6.00;99.90;;;;;;7327017;32;20134;-56
2024/01/31 06:04:32;;;;;;;14.65;7.03;;;6.00;99.90;;;;;;7341052;32;20131;-56
2024/01/31 06:08:34;;;;;;;15.98;8.15;;;6.00;99.90;;;;;;7345529;32;20208;-56
2024/01/31 06:12:36;;;;;;;13.45;7.62;;;6.00;99.90;;;;;;7343506;32;20247;-57
2024/01/31 06:16:38;;;;;;;17.45;7.68;;;6.00;99.90;;;;;;7324445;32;20600;-56
2024/01/31 06:20:40;;;;;;;14.05;7.97;;;6.00;99.90;;;;;;7338362;32;20191;-55
2024/01/31 06:24:42;;;;;;;18.27;8.77;;;6.00;99.90;;;;;;7337844;32;20281;-56
2024/01/31 06:28:45;;;;;;;15.68;8.02;;;6.00;99.90;;;;;;7340637;32;20100;-57
2024/01/31 06:32:47;;;;;;;18.50;8.68;;;6.10;99.90;;;;;;7338808;32;20590;-56
2024/01/31 06:36:50;;;;;;;19.62;7.85;;;6.10;99.90;;;;;;7338080;32;20195;-55
2024/01/31 06:40:57;;;;;;;16.17;9.23;;;6.00;99.90;;;;;;7346847;32;20319;-56
2024/01/31 06:44:59;;;;;;;18.17;9.30;;;6.10;99.90;;;;;;7340601;32;20224;-57
2024/01/31 06:49:01;;;;;;;16.15;8.50;;;6.20;99.90;;;;;;7342759;32;20095;-55
2024/01/31 06:53:03;;;;;;;16.33;9.20;;;6.10;99.90;;;;;;7343330;32;20457;-57
2024/01/31 06:57:05;;;;;;;16.90;9.30;;;6.20;99.90;;;;;;7343916;32;20130;-57
2024/01/31 07:01:07;;;;;;;17.35;10.02;;;6.10;99.90;;;;;;7342623;32;20121;-57
2024/01/31 07:05:09;;;;;;;17.65;9.75;;;6.10;99.90;;;;;;7340288;32;20293;-56
2024/01/31 07:09:11;;;;;;;20.67;10.20;;;6.10;99.90;;;;;;7341627;32;20205;-54
2024/01/31 07:13:13;;;;;;;23.62;10.38;;;6.10;99.90;;;;;;7337415;32;20205;-57
2024/01/31 07:17:14;;;;;;;20.40;10.90;;;6.10;99.90;;;;;;7340021;32;20168;-57
2024/01/31 07:21:24;;;;;;;17.10;10.38;;;6.10;99.90;;;;;;7341877;32;20170;-57
2024/01/31 07:25:26;;;;;;;18.05;9.93;;;6.10;99.90;;;;;;7334970;32;20132;-57
2024/01/31 07:29:29;;;;;;;17.08;10.43;;;6.00;99.90;;;;;;7342634;32;20155;-59
2024/01/31 07:33:33;;;;;;;25.33;10.60;;;6.00;99.90;;;;;;7336878;32;20200;-57
2024/01/31 07:37:36;;;;;;;18.77;10.63;;;6.10;99.90;;;;;;7342527;32;20470;-57
2024/01/31 07:41:38;;;;;;;14.93;9.88;;;6.10;99.90;;;;;;7338448;32;20095;-57
2024/01/31 07:45:40;;;;;;;21.77;11.32;;;6.10;99.90;;;;;;7343677;32;20247;-58
2024/01/31 07:49:42;;;;;;;20.37;10.90;;;6.10;99.90;;;;;;7337282;32;20122;-58
2024/01/31 07:53:44;;;;;;;23.60;11.50;;;6.20;99.90;;;;;;7335596;32;20194;-57
2024/01/31 07:57:46;;;;;;;17.20;10.05;;;6.20;99.90;;;;;;7340394;32;20156;-58
2024/01/31 08:01:47;;;;;;;18.92;10.98;;;6.20;99.90;;;;;;7349344;32;20099;-57
2024/01/31 08:05:50;;;;;;;23.70;11.07;;;6.20;99.90;;;;;;7340136;32;20168;-57
2024/01/31 08:09:52;;;;;;;21.23;11.05;;;6.20;99.90;;;;;;7343117;32;20107;-57
2024/01/31 08:13:53;;;;;;;18.37;9.52;;;6.40;99.90;;;;;;7347061;32;20233;-58
2024/01/31 08:17:55;;;;;;;24.45;11.25;;;6.40;99.90;;;;;;7344403;32;20255;-57
2024/01/31 08:21:57;;;;;;;19.35;10.77;;;6.40;99.90;;;;;;7342577;32;20114;-57
2024/01/31 08:25:59;;;;;;;19.65;10.85;;;6.50;99.90;;;;;;7341607;32;20249;-57
2024/01/31 08:30:01;;;;;;;23.12;10.63;;;6.40;99.90;;;;;;7344977;32;20614;-56
2024/01/31 08:34:02;;;;;;;22.92;10.93;;;6.50;99.90;;;;;;7335901;32;20115;-58
2024/01/31 08:38:04;;;;;;;18.42;10.07;;;6.50;99.90;;;;;;7343148;32;20218;-56
2024/01/31 08:42:07;;;;;;;20.83;11.10;;;6.50;99.90;;;;;;7339582;32;20098;-56
2024/01/31 08:46:09;;;;;;;19.77;10.55;;;6.50;99.90;;;;;;7351551;32;20096;-57
2024/01/31 08:50:11;;;;;;;16.95;10.27;;;6.60;99.90;;;;;;7349676;32;20238;-56
2024/01/31 08:54:13;;;;;;;21.02;10.68;;;6.60;99.90;;;;;;7345208;32;20228;-56
2024/01/31 08:58:15;;;;;;;17.08;10.05;;;6.50;99.90;;;;;;7338777;32;20179;-58
2024/01/31 09:02:17;;;;;;;20.48;10.63;;;6.50;99.90;;;;;;7344206;32;20126;-57
2024/01/31 09:06:19;;;;;;;19.65;9.93;;;6.50;99.90;;;;;;7344443;32;20099;-57
2024/01/31 09:10:21;;;;;;;19.08;11.05;;;6.60;99.90;;;;;;7342641;32;20348;-57
2024/01/31 09:14:23;;;;;;;19.30;11.10;;;6.60;99.90;;;;;;7344265;32;20190;-58
2024/01/31 09:18:25;;;;;;;21.23;10.73;;;6.60;99.90;;;;;;7342222;32;20304;-57
2024/01/31 09:22:27;;;;;;;18.62;9.95;;;6.70;99.90;;;;;;7338962;32;20516;-57
2024/01/31 09:26:29;;;;;;;21.85;11.10;;;6.70;99.90;;;;;;7350822;32;20099;-57
2024/01/31 09:30:30;;;;;;;21.55;11.70;;;6.70;99.90;;;;;;7346327;32;20209;-57
2024/01/31 09:34:32;;;;;;;22.58;11.68;;;6.60;99.90;;;;;;7352414;32;20144;-56
2024/01/31 09:38:34;;;;;;;22.73;11.05;;;6.80;99.90;;;;;;7347053;32;20182;-56
2024/01/31 09:42:36;;;;;;;20.42;11.43;;;6.80;99.90;;;;;;7352863;32;20099;-57
2024/01/31 09:46:40;;;;;;;22.25;11.18;;;6.70;99.90;;;;;;7340576;32;20118;-57
2024/01/31 09:50:42;;;;;;;19.25;11.35;;;6.70;99.90;;;;;;7346339;32;20220;-56
2024/01/31 09:54:46;;;;;;;24.92;12.30;;;6.80;99.90;;;;;;7337617;32;20483;-57
2024/01/31 09:58:48;;;;;;;20.58;11.95;;;6.80;99.90;;;;;;7341602;32;20108;-58
2024/01/31 10:02:50;;;;;;;23.85;12.85;;;6.80;99.90;;;;;;7337474;32;20570;-58
2024/01/31 10:06:52;;;;;;;25.08;13.07;;;6.80;99.90;;;;;;7343776;32;20120;-57
2024/01/31 10:10:54;;;;;;;30.67;13.68;;;6.70;99.90;;;;;;7339620;32;20698;-57
2024/01/31 10:14:56;;;;;;;26.58;13.02;;;6.70;99.90;;;;;;7341842;32;20133;-57
2024/01/31 10:18:58;;;;;;;27.30;13.90;;;6.90;99.90;;;;;;7345091;32;20099;-56
2024/01/31 10:23:01;;;;;;;26.20;13.10;;;6.90;99.90;;;;;;7341684;32;20301;-57
2024/01/31 10:27:21;;;;;;;28.98;12.23;;;6.90;99.90;;;;;;7339529;32;20179;-57
2024/01/31 10:31:23;;;;;;;22.87;11.43;;;6.90;99.90;;;;;;7342557;32;20119;-55
2024/01/31 10:35:27;;;;;;;24.67;12.00;;;6.90;99.90;;;;;;7342435;32;20430;-57
2024/01/31 10:39:50;;;;;;;24.95;13.18;;;6.80;99.90;;;;;;7338258;32;20096;-57
2024/01/31 10:43:53;;;;;;;26.55;12.73;;;6.80;99.90;;;;;;7346568;32;20273;-57
2024/01/31 10:47:55;;;;;;;26.65;11.85;;;6.90;99.90;;;;;;7349701;32;20099;-56
2024/01/31 10:52:01;;;;;;;19.37;11.12;;;6.90;99.90;;;;;;7348317;32;20098;-57
2024/01/31 10:56:05;;;;;;;23.00;11.30;;;6.90;99.90;;;;;;7342999;32;20539;-56
2024/01/31 11:00:09;;;;;;;19.90;11.02;;;7.10;99.90;;;;;;7349641;32;20115;-58
2024/01/31 11:04:13;;;;;;;20.62;11.27;;;7.10;99.90;;;;;;7350679;32;20118;-56
2024/01/31 11:08:23;;;;;;;21.15;10.95;;;7.30;99.90;;;;;;7345733;32;20127;-56
2024/01/31 11:12:28;;;;;;;23.55;11.32;;;7.40;99.90;;;;;;7348892;32;20159;-57
2024/01/31 11:16:30;;;;;;;21.08;11.32;;;7.50;99.90;;;;;;7341194;32;20103;-59
2024/01/31 11:20:35;;;;;;;22.77;11.98;;;7.50;99.90;;;;;;7345075;32;20317;-57
2024/01/31 11:24:48;;;;;;;23.77;12.00;;;7.40;99.90;;;;;;7340891;32;20131;-58
2024/01/31 11:28:52;;;;;;;22.73;11.82;;;7.40;99.90;;;;;;7340087;32;20122;-57
2024/01/31 11:32:53;;;;;;;23.30;12.43;;;7.30;99.90;;;;;;7334008;32;20249;-56
2024/01/31 11:36:55;;;;;;;25.95;13.07;;;7.40;99.90;;;;;;7336149;32;20088;-54
2024/01/31 11:40:57;;;;;;;22.00;12.93;;;7.50;99.90;;;;;;7337745;32;20143;-56
2024/01/31 11:45:00;;;;;;;24.83;12.88;;;7.50;99.90;;;;;;7328913;32;20095;-56
2024/01/31 11:49:02;;;;;;;26.42;14.68;;;7.60;99.90;;;;;;7338138;32;20338;-56
2024/01/31 11:53:04;;;;;;;29.12;13.62;;;7.70;99.90;;;;;;7334237;32;20099;-58
2024/01/31 11:57:07;;;;;;;27.65;13.80;;;7.70;99.90;;;;;;7341208;32;20788;-57
2024/01/31 12:01:09;;;;;;;27.77;13.15;;;7.70;99.90;;;;;;7339473;32;20115;-57
2024/01/31 12:05:11;;;;;;;25.67;13.30;;;7.80;99.90;;;;;;7344521;32;21377;-57
2024/01/31 12:09:13;;;;;;;31.45;14.50;;;7.80;99.90;;;;;;7341551;32;20096;-57
2024/01/31 12:13:15;;;;;;;25.60;13.05;;;7.80;99.90;;;;;;7340871;32;20369;-58
2024/01/31 12:17:21;;;;;;;24.35;13.85;;;7.90;99.90;;;;;;7323431;32;20099;-58
2024/01/31 12:21:23;;;;;;;26.73;13.70;;;7.90;99.90;;;;;;7339535;32;20100;-57
2024/01/31 12:25:24;;;;;;;25.55;13.80;;;7.90;99.90;;;;;;7337518;32;20252;-57
2024/01/31 12:29:26;;;;;;;26.17;13.68;;;7.90;99.90;;;;;;7335947;32;20108;-58
2024/01/31 12:33:28;;;;;;;23.15;13.20;;;8.00;99.90;;;;;;7327174;32;20099;-58
2024/01/31 12:37:30;;;;;;;25.60;13.38;;;8.00;99.90;;;;;;7334264;32;20095;-58
2024/01/31 12:41:32;;;;;;;24.87;12.82;;;7.90;99.90;;;;;;7338166;32;20208;-58
2024/01/31 12:45:34;;;;;;;24.95;13.38;;;7.80;99.90;;;;;;7342675;32;20195;-57
2024/01/31 12:49:39;;;;;;;20.60;12.37;;;7.80;99.90;;;;;;7347880;32;20424;-58
2024/01/31 12:53:41;;;;;;;24.17;13.32;;;7.80;99.90;;;;;;7343731;32;20188;-57
2024/01/31 12:57:43;;;;;;;23.25;13.35;;;7.80;99.90;;;;;;7348583;32;20126;-58
2024/01/31 13:01:44;;;;;;;20.12;11.20;;;7.80;99.90;;;;;;7340654;32;20103;-58
2024/01/31 13:05:46;;;;;;;20.05;12.13;;;7.80;99.90;;;;;;7341953;32;20155;-57
2024/01/31 13:09:49;;;;;;;20.50;11.55;;;7.80;99.90;;;;;;7340266;32;20152;-57
2024/01/31 13:13:51;;;;;;;11.93;7.10;;;7.70;99.90;;;;;;7344492;32;20139;-57
2024/01/31 13:17:53;;;;;;;12.65;7.30;;;7.60;99.90;;;;;;7341670;32;20130;-57
2024/01/31 13:21:55;;;;;;;11.63;7.22;;;7.70;99.90;;;;;;7346418;32;20131;-57
2024/01/31 13:25:57;;;;;;;10.15;7.47;;;7.70;99.90;;;;;;7339768;32;20521;-58
2024/01/31 13:29:59;;;;;;;11.57;6.50;;;7.60;99.90;;;;;;7335794;32;20122;-58
2024/01/31 13:34:01;;;;;;;9.63;5.87;;;7.50;99.90;;;;;;7343119;32;20221;-59
2024/01/31 13:38:03;;;;;;;7.57;5.70;;;7.60;99.90;;;;;;7343509;32;20508;-57
2024/01/31 13:42:05;;;;;;;9.00;5.28;;;7.50;99.90;;;;;;7341412;32;20117;-57
2024/01/31 13:46:09;;;;;;;7.78;5.43;;;7.40;99.90;;;;;;7339800;32;20095;-58
2024/01/31 13:50:11;;;;;;;11.48;6.20;;;7.40;99.90;;;;;;7342327;32;20117;-57
2024/01/31 13:54:15;;;;;;;7.05;5.12;;;7.50;99.90;;;;;;7332310;32;20160;-57
2024/01/31 13:58:16;;;;;;;8.02;5.40;;;7.50;99.90;;;;;;7342407;32;20176;-56
2024/01/31 14:02:18;;;;;;;9.45;6.40;;;7.50;99.90;;;;;;7346816;32;20651;-58
2024/01/31 14:06:20;;;;;;;9.57;6.30;;;7.50;99.90;;;;;;7348183;32;20100;-58
2024/01/31 14:10:22;;;;;;;10.50;7.45;;;7.40;99.90;;;;;;7345932;32;20178;-57
2024/01/31 14:14:23;;;;;;;10.55;7.20;;;7.50;99.90;;;;;;7337813;32;20302;-58
2024/01/31 14:18:25;;;;;;;10.48;7.32;;;7.40;99.90;;;;;;7341407;32;20099;-58
2024/01/31 14:22:27;;;;;;;12.05;7.93;;;7.40;99.90;;;;;;7342953;32;20103;-58
2024/01/31 14:26:49;;;;;;;10.43;7.32;;;7.30;99.90;;;;;;7344698;32;20110;-57
2024/01/31 14:30:51;;;;;;;10.38;7.45;;;7.20;99.90;;;;;;7335676;32;20178;-59
2024/01/31 14:34:54;;;;;;;8.55;6.53;;;7.20;99.90;;;;;;7344999;32;20099;-58
2024/01/31 14:38:56;;;;;;;8.30;6.53;;;7.20;99.90;;;;;;7339908;32;20125;-58
2024/01/31 14:42:58;;;;;;;10.20;6.82;;;7.30;99.90;;;;;;7342620;32;20099;-60
2024/01/31 14:47:00;;;;;;;11.02;6.50;;;7.20;99.90;;;;;;7339634;32;20127;-57
2024/01/31 14:51:03;;;;;;;10.57;6.22;;;7.20;99.90;;;;;;7342198;32;20111;-58
2024/01/31 14:55:05;;;;;;;8.20;6.37;;;7.20;99.90;;;;;;7334390;32;20186;-57
2024/01/31 14:59:07;;;;;;;9.77;5.72;;;7.20;99.90;;;;;;7340249;32;20099;-58
2024/01/31 15:03:09;;;;;;;7.93;5.80;;;7.20;99.90;;;;;;7339344;32;20214;-58
2024/01/31 15:07:11;;;;;;;9.50;5.30;;;7.30;99.90;;;;;;7337914;32;20171;-59
2024/01/31 15:11:13;;;;;;;8.07;5.30;;;7.20;99.90;;;;;;7334697;32;20684;-58
2024/01/31 15:15:15;;;;;;;8.18;5.47;;;7.20;99.90;;;;;;7336250;32;20103;-58
2024/01/31 15:19:17;;;;;;;10.07;5.40;;;7.20;99.90;;;;;;7338261;32;20168;-59
2024/01/31 15:23:19;;;;;;;8.35;5.10;;;7.10;99.90;;;;;;7340449;32;20183;-59
2024/01/31 15:27:20;;;;;;;9.43;4.82;;;7.10;99.90;;;;;;7343097;32;20108;-60
2024/01/31 15:31:22;;;;;;;7.37;4.80;;;7.10;99.90;;;;;;7342119;32;20246;-60
2024/01/31 15:35:24;;;;;;;8.25;5.22;;;7.10;99.90;;;;;;7341991;32;20482;-60
2024/01/31 15:39:26;;;;;;;8.90;5.68;;;7.10;99.90;;;;;;7338623;32;20343;-58
2024/01/31 15:43:28;;;;;;;8.82;5.87;;;7.10;99.90;;;;;;7342271;32;20536;-59
2024/01/31 15:47:29;;;;;;;10.57;6.97;;;7.10;99.90;;;;;;7344369;32;20734;-59
2024/01/31 15:51:42;;;;;;;11.48;5.07;;;7.00;99.90;;;;;;7334130;32;20384;-59
2024/01/31 15:55:44;;;;;;;8.10;4.40;;;7.00;99.90;;;;;;7338272;32;20618;-58
2024/01/31 15:59:45;;;;;;;5.87;3.78;;;7.00;99.90;;;;;;7341905;32;20115;-59
2024/01/31 16:03:47;;;;;;;6.15;3.45;;;6.90;99.90;;;;;;7334423;32;20537;-59
2024/01/31 16:07:49;;;;;;;7.05;3.60;;;7.00;99.90;;;;;;7336229;32;20096;-59
2024/01/31 16:11:51;;;;;;;6.03;3.70;;;6.90;99.90;;;;;;7337173;32;20146;-60
2024/01/31 16:15:53;;;;;;;7.53;4.15;;;7.00;99.90;;;;;;7334275;32;20241;-59
2024/01/31 16:19:55;;;;;;;7.97;4.85;;;6.90;99.90;;;;;;7337260;32;20577;-61
2024/01/31 16:23:57;;;;;;;7.43;3.60;;;6.90;99.90;;;;;;7348153;32;20264;-59
2024/01/31 16:27:59;;;;;;;5.80;3.03;;;7.00;99.90;;;;;;7344182;32;20202;-58
2024/01/31 16:32:01;;;;;;;5.90;3.50;;;7.10;99.90;;;;;;7341094;32;20526;-58
2024/01/31 16:36:03;;;;;;;5.35;3.00;;;7.00;99.90;;;;;;7346242;32;20851;-58
2024/01/31 16:40:05;;;;;;;8.98;4.05;;;7.00;99.90;;;;;;7342308;32;20216;-59
2024/01/31 16:44:07;;;;;;;6.82;3.45;;;7.00;99.90;;;;;;7344093;32;20237;-58
2024/01/31 16:48:09;;;;;;;4.90;2.72;;;6.90;99.90;;;;;;7347537;32;20199;-58
2024/01/31 16:52:11;;;;;;;5.22;2.87;;;6.90;99.90;;;;;;7346547;32;20199;-60
2024/01/31 16:56:13;;;;;;;6.43;2.90;;;6.90;99.90;;;;;;7342973;32;20194;-58
2024/01/31 17:00:15;;;;;;;6.45;2.80;;;6.80;99.90;;;;;;7345185;32;20099;-57
2024/01/31 17:04:18;;;;;;;7.75;4.60;;;6.80;99.90;;;;;;7342539;32;20099;-59
2024/01/31 17:08:19;;;;;;;11.43;7.20;;;6.70;99.90;;;;;;7341539;32;20261;-59
2024/01/31 17:12:21;;;;;;;5.43;3.60;;;6.70;99.90;;;;;;7340832;32;20176;-58
2024/01/31 17:16:23;;;;;;;6.57;3.40;;;6.60;99.90;;;;;;7342037;32;20159;-58
2024/01/31 17:20:25;;;;;;;13.45;3.37;;;6.50;99.90;;;;;;7338931;32;20115;-58
2024/01/31 17:24:28;;;;;;;6.45;2.67;;;6.40;99.90;;;;;;7340893;32;20670;-58
2024/01/31 17:28:29;;;;;;;6.70;2.70;;;6.20;99.90;;;;;;7345347;32;20111;-57
2024/01/31 17:32:31;;;;;;;3.97;2.47;;;5.90;99.90;;;;;;7346031;32;20126;-58
2024/01/31 17:36:33;;;;;;;5.32;2.60;;;5.80;99.90;;;;;;7339938;32;20294;-58
2024/01/31 17:40:34;;;;;;;9.07;2.65;;;5.80;99.90;;;;;;7337918;32;20218;-59
2024/01/31 17:44:36;;;;;;;7.75;2.80;;;5.60;99.90;;;;;;7339177;32;20212;-58
2024/01/31 17:48:38;;;;;;;4.12;2.42;;;5.50;99.90;;;;;;7342481;32;20490;-59
2024/01/31 17:52:41;;;;;;;8.90;3.08;;;5.30;99.90;;;;;;7338039;32;20237;-57
2024/01/31 17:56:43;;;;;;;5.60;3.10;;;5.20;99.90;;;;;;7341768;32;20132;-58
2024/01/31 18:00:45;;;;;;;5.07;2.65;;;5.20;99.90;;;;;;7340558;32;20509;-59
2024/01/31 18:04:49;;;;;;;4.55;2.35;;;5.20;99.90;;;;;;7341433;32;20206;-57
2024/01/31 18:08:50;;;;;;;5.32;2.67;;;5.30;99.90;;;;;;7335962;32;20211;-58
2024/01/31 18:12:52;;;;;;;5.30;2.87;;;5.40;99.90;;;;;;7340813;32;20115;-59
2024/01/31 18:16:55;;;;;;;4.57;2.92;;;5.50;99.90;;;;;;7343251;32;20863;-57
2024/01/31 18:20:56;;;;;;;8.18;4.05;;;5.50;99.90;;;;;;7341114;32;20602;-59
2024/01/31 18:25:01;;;;;;;7.30;4.28;;;5.40;99.90;;;;;;7344160;32;20137;-57
2024/01/31 18:29:05;;;;;;;10.65;4.30;;;5.40;99.90;;;;;;7344686;32;20242;-57
2024/01/31 18:33:07;;;;;;;8.75;4.50;;;5.30;99.90;;;;;;7347019;32;20114;-58
2024/01/31 18:37:09;;;;;;;11.15;5.35;;;5.30;99.90;;;;;;7345470;32;20166;-60
2024/01/31 18:41:11;;;;;;;5.53;3.95;;;5.20;99.90;;;;;;7344131;32;20271;-57
2024/01/31 18:45:14;;;;;;;7.90;4.50;;;5.10;99.90;;;;;;7345609;32;20236;-57
2024/01/31 18:49:17;;;;;;;6.53;3.85;;;5.00;99.90;;;;;;7345376;32;20147;-57
2024/01/31 18:53:19;;;;;;;6.28;3.70;;;4.90;99.90;;;;;;7335604;32;20178;-58
2024/01/31 18:57:21;;;;;;;6.60;3.72;;;4.80;99.90;;;;;;7339355;32;20737;-57
2024/01/31 19:01:23;;;;;;;7.72;3.72;;;4.80;99.90;;;;;;7344145;32;20190;-57
2024/01/31 19:05:25;;;;;;;5.45;2.95;;;4.90;99.90;;;;;;7341202;32;20187;-57
2024/01/31 19:09:27;;;;;;;5.95;3.50;;;4.80;99.90;;;;;;7341727;32;20653;-57
2024/01/31 19:13:29;;;;;;;9.07;3.42;;;5.10;99.90;;;;;;7339808;32;20122;-58
2024/01/31 19:17:31;;;;;;;6.40;3.42;;;5.20;99.90;;;;;;7340971;32;20140;-57
2024/01/31 19:21:46;;;;;;;7.50;3.97;;;5.40;99.90;;;;;;7342049;32;20175;-57
2024/01/31 19:25:48;;;;;;;8.27;3.58;;;5.40;99.90;;;;;;7342077;32;20099;-58
2024/01/31 19:29:49;;;;;;;6.68;3.85;;;5.50;99.90;;;;;;7337957;32;20585;-57
2024/01/31 19:33:51;;;;;;;8.68;3.47;;;5.70;99.90;;;;;;7335727;32;20277;-57
2024/01/31 19:37:53;;;;;;;8.23;3.62;;;5.70;99.90;;;;;;7330168;32;20134;-59
2024/01/31 19:41:55;;;;;;;6.37;3.45;;;5.80;99.90;;;;;;7338560;32;20224;-57
2024/01/31 19:45:56;;;;;;;5.00;3.30;;;5.90;99.90;;;;;;7341060;32;20196;-59
2024/01/31 19:49:58;;;;;;;8.93;3.60;;;5.90;99.90;;;;;;7336175;32;20164;-57
2024/01/31 19:54:00;;;;;;;7.07;3.75;;;5.90;99.90;;;;;;7338031;32;20095;-57
2024/01/31 19:58:05;;;;;;;7.35;3.35;;;5.90;99.90;;;;;;7346683;32;20291;-57
2024/01/31 20:02:08;;;;;;;6.97;3.67;;;5.90;99.90;;;;;;7343773;32;20197;-56
2024/01/31 20:06:09;;;;;;;5.20;3.70;;;5.90;99.90;;;;;;7345656;32;20264;-59
2024/01/31 20:10:12;;;;;;;7.18;3.97;;;5.90;99.90;;;;;;7343307;32;20104;-58
2024/01/31 20:14:13;;;;;;;5.87;3.75;;;5.90;99.90;;;;;;7343674;32;20214;-58
2024/01/31 20:18:15;;;;;;;9.70;3.28;;;5.90;99.90;;;;;;7341609;32;20176;-57
2024/01/31 20:22:17;;;;;;;8.32;3.87;;;5.90;99.90;;;;;;7342633;32;20107;-58
2024/01/31 20:26:19;;;;;;;7.75;3.25;;;5.80;99.90;;;;;;7345109;32;20127;-59
2024/01/31 20:30:21;;;;;;;7.47;3.62;;;5.70;99.90;;;;;;7346880;32;20126;-58
2024/01/31 20:34:23;;;;;;;5.55;3.25;;;5.60;99.90;;;;;;7346129;32;20125;-58
2024/01/31 20:38:25;;;;;;;7.22;3.50;;;5.80;99.90;;;;;;7338765;32;20107;-58
2024/01/31 20:42:28;;;;;;;7.05;3.58;;;5.70;99.90;;;;;;7337374;32;20285;-56
2024/01/31 20:46:29;;;;;;;6.87;3.30;;;5.80;99.90;;;;;;7336793;32;20182;-59
2024/01/31 20:50:32;;;;;;;9.65;3.75;;;5.90;99.90;;;;;;7342919;32;20605;-57
2024/01/31 20:54:39;;;;;;;7.45;3.75;;;6.00;99.90;;;;;;7337631;32;20206;-58
2024/01/31 20:58:41;;;;;;;8.90;3.23;;;6.00;99.90;;;;;;7340190;32;20223;-57